Maritime Bagui — 3EGI5 — position and weather

sailwx.info

Track history (hours):
 
Tides and Currents Weather Stations Pressure Air Temp Water Temp Dewpoint Dewpoint Depression Visibility Wind Speed Wind Dir Waves Ship Positions

Maritime Bagui

Last reported at 2018-May-20 17:11 UTC. Time now 2018-May-23 15:12 UTC.
Position N 24°03' E 118°51'.

Length 225 m; draft 13 m.

Type: Cargo ship. MMSI: 356679000.

Date/timePositionNaut miles runAvg speedWind from/ knotsBaromVisibWave heightAir tempDewpointWater temp
2018-May-20 17:11N 24°03' E 118°51'211.3
2018-May-20 17:00N 24°01' E 118°49'611.3
2018-May-20 16:29N 23°57' E 118°45'511.2
2018-May-20 16:00N 23°54' E 118°40'611.2
2018-May-20 15:28N 23°51' E 118°35'510.9
2018-May-20 15:00N 23°47' E 118°31'711.2
2018-May-20 14:23N 23°43' E 118°25'411.2
2018-May-20 13:59N 23°40' E 118°21'811.0
2018-May-20 13:14N 23°34' E 118°14'510.5
2018-May-20 12:47N 23°31' E 118°11'510.3
2018-May-20 12:19N 23°28' E 118°07'310.0
2018-May-20 12:00N 23°26' E 118°04'6 9.6
2018-May-20 11:21N 23°21' E 117°59'11 9.3
2018-May-20 10:08N 23°14' E 117°50'5 9.2
2018-May-20 09:36N 23°10' E 117°47'1 9.1
2018-May-20 09:30N 23°09' E 117°46'  
2018-May-14 15:27N 01°24' E 104°28'511.4
2018-May-14 14:58N 01°20' E 104°24'510.8
2018-May-14 14:31N 01°17' E 104°20'610.5
2018-May-14 13:59N 01°16' E 104°14'510.5
2018-May-14 13:30N 01°16' E 104°09'510.2
2018-May-14 12:58N 01°15' E 104°04'4 8.4
2018-May-14 12:30N 01°14' E 104°00'3 5.5
2018-May-14 11:59N 01°17' E 103°60'0 0.7
2018-May-14 11:29N 01°17' E 103°60'0 0.0
2018-May-14 10:59N 01°17' E 103°60'0 0.0
2018-May-14 10:17N 01°17' E 103°60'0 0.1
2018-May-14 09:53N 01°17' E 103°60'0 0.3
2018-May-14 09:30N 01°18' E 103°60'0 0.2
2018-May-14 08:53N 01°18' E 103°60'0 0.1
2018-May-14 08:20N 01°18' E 103°60'0 0.1
2018-May-14 07:59N 01°18' E 103°60'0 0.0
2018-May-14 07:26N 01°18' E 103°60'0 0.0
2018-May-14 06:56N 01°18' E 103°60'0 0.0
2018-May-14 06:26N 01°18' E 103°60'0 0.0
2018-May-14 05:59N 01°18' E 103°60'0 0.1
2018-May-14 05:23N 01°18' E 103°60'0 0.2
2018-May-14 04:59N 01°18' E 103°60'0 0.1
2018-May-14 04:14N 01°18' E 103°60'0 0.1
2018-May-14 03:59N 01°17' E 103°60'0 0.0
2018-May-14 03:20N 01°17' E 103°60'0 0.0
2018-May-14 02:44N 01°17' E 103°60'0 0.0
2018-May-14 02:26N 01°17' E 103°60'0 0.0
2018-May-14 01:59N 01°17' E 103°60'0 0.0
2018-May-14 01:29N 01°17' E 103°60'0 0.1
2018-May-14 00:59N 01°17' E 103°60'0 0.0
2018-May-14 00:29N 01°17' E 103°60'0 0.0
2018-May-13 23:56N 01°17' E 103°60'0 0.1
2018-May-13 23:29N 01°17' E 103°60'0 0.4
2018-May-13 22:59N 01°18' E 103°60'0 0.2
2018-May-13 22:26N 01°18' E 103°60'0 0.0
2018-May-13 21:44N 01°18' E 103°60'0 0.0
2018-May-13 21:23N 01°18' E 103°60'0 0.1
2018-May-13 20:50N 01°17' E 104°00'0 0.2
2018-May-13 20:30N 01°17' E 103°60'0 0.0
2018-May-13 19:50N 01°17' E 103°60'0 0.2
2018-May-13 19:30N 01°18' E 104°00'0 0.6
2018-May-13 19:00N 01°17' E 104°00'1 1.8
2018-May-13 18:29N 01°16' E 103°60'2 4.8
2018-May-13 17:59N 01°16' E 103°57'3 5.6
2018-May-13 17:30N 01°13' E 103°56'3 5.8
2018-May-13 17:00N 01°12' E 103°53'4 7.4
2018-May-13 16:30N 01°10' E 103°50'611.6
2018-May-13 16:00N 01°07' E 103°45'611.6
2018-May-13 15:30N 01°04' E 103°41'610.8
2018-May-13 15:00N 01°05' E 103°35'611.9
2018-May-13 14:30N 01°08' E 103°30'611.8
2018-May-13 14:00N 01°11' E 103°25'611.9
2018-May-13 13:30N 01°15' E 103°20'611.9
2018-May-13 12:58N 01°19' E 103°16'  
Track history (hours):
 
Tides and Currents Weather Stations Pressure Air Temp Water Temp Dewpoint Dewpoint Depression Visibility Wind Speed Wind Dir Waves Ship Positions

Maritime Bagui

Last reported at 2018-May-20 17:11 UTC. Time now 2018-May-23 15:12 UTC.
Position N 24°03' E 118°51'.

Length 225 m; draft 13 m.

Type: Cargo ship. MMSI: 356679000.

Date/timePositionNaut miles runAvg speedWind from/ knotsBaromVisibWave heightAir tempDewpointWater temp
2018-May-20 17:11N 24°03' E 118°51'211.3
2018-May-20 17:00N 24°01' E 118°49'611.3
2018-May-20 16:29N 23°57' E 118°45'511.2
2018-May-20 16:00N 23°54' E 118°40'611.2
2018-May-20 15:28N 23°51' E 118°35'510.9
2018-May-20 15:00N 23°47' E 118°31'711.2
2018-May-20 14:23N 23°43' E 118°25'411.2
2018-May-20 13:59N 23°40' E 118°21'811.0
2018-May-20 13:14N 23°34' E 118°14'510.5
2018-May-20 12:47N 23°31' E 118°11'510.3
2018-May-20 12:19N 23°28' E 118°07'310.0
2018-May-20 12:00N 23°26' E 118°04'6 9.6
2018-May-20 11:21N 23°21' E 117°59'11 9.3
2018-May-20 10:08N 23°14' E 117°50'5 9.2
2018-May-20 09:36N 23°10' E 117°47'1 9.1
2018-May-20 09:30N 23°09' E 117°46'  
2018-May-14 15:27N 01°24' E 104°28'511.4
2018-May-14 14:58N 01°20' E 104°24'510.8
2018-May-14 14:31N 01°17' E 104°20'610.5
2018-May-14 13:59N 01°16' E 104°14'510.5
2018-May-14 13:30N 01°16' E 104°09'510.2
2018-May-14 12:58N 01°15' E 104°04'4 8.4
2018-May-14 12:30N 01°14' E 104°00'3 5.5
2018-May-14 11:59N 01°17' E 103°60'0 0.7
2018-May-14 11:29N 01°17' E 103°60'0 0.0
2018-May-14 10:59N 01°17' E 103°60'0 0.0
2018-May-14 10:17N 01°17' E 103°60'0 0.1
2018-May-14 09:53N 01°17' E 103°60'0 0.3
2018-May-14 09:30N 01°18' E 103°60'0 0.2
2018-May-14 08:53N 01°18' E 103°60'0 0.1
2018-May-14 08:20N 01°18' E 103°60'0 0.1
2018-May-14 07:59N 01°18' E 103°60'0 0.0
2018-May-14 07:26N 01°18' E 103°60'0 0.0
2018-May-14 06:56N 01°18' E 103°60'0 0.0
2018-May-14 06:26N 01°18' E 103°60'0 0.0
2018-May-14 05:59N 01°18' E 103°60'0 0.1
2018-May-14 05:23N 01°18' E 103°60'0 0.2
2018-May-14 04:59N 01°18' E 103°60'0 0.1
2018-May-14 04:14N 01°18' E 103°60'0 0.1
2018-May-14 03:59N 01°17' E 103°60'0 0.0
2018-May-14 03:20N 01°17' E 103°60'0 0.0
2018-May-14 02:44N 01°17' E 103°60'0 0.0
2018-May-14 02:26N 01°17' E 103°60'0 0.0
2018-May-14 01:59N 01°17' E 103°60'0 0.0
2018-May-14 01:29N 01°17' E 103°60'0 0.1
2018-May-14 00:59N 01°17' E 103°60'0 0.0
2018-May-14 00:29N 01°17' E 103°60'0 0.0
2018-May-13 23:56N 01°17' E 103°60'0 0.1
2018-May-13 23:29N 01°17' E 103°60'0 0.4
2018-May-13 22:59N 01°18' E 103°60'0 0.2
2018-May-13 22:26N 01°18' E 103°60'0 0.0
2018-May-13 21:44N 01°18' E 103°60'0 0.0
2018-May-13 21:23N 01°18' E 103°60'0 0.1
2018-May-13 20:50N 01°17' E 104°00'0 0.2
2018-May-13 20:30N 01°17' E 103°60'0 0.0
2018-May-13 19:50N 01°17' E 103°60'0 0.2
2018-May-13 19:30N 01°18' E 104°00'0 0.6
2018-May-13 19:00N 01°17' E 104°00'1 1.8
2018-May-13 18:29N 01°16' E 103°60'2 4.8
2018-May-13 17:59N 01°16' E 103°57'3 5.6
2018-May-13 17:30N 01°13' E 103°56'3 5.8
2018-May-13 17:00N 01°12' E 103°53'4 7.4
2018-May-13 16:30N 01°10' E 103°50'611.6
2018-May-13 16:00N 01°07' E 103°45'611.6
2018-May-13 15:30N 01°04' E 103°41'610.8
2018-May-13 15:00N 01°05' E 103°35'611.9
2018-May-13 14:30N 01°08' E 103°30'611.8
2018-May-13 14:00N 01°11' E 103°25'611.9
2018-May-13 13:30N 01°15' E 103°20'611.9
2018-May-13 12:58N 01°19' E 103°16'  

Dump ship's entire track history